createdAt,value
2022-08-27T00:02:20.542Z,21.50
2022-08-27T00:04:50.246Z,21.50
2022-08-27T00:07:17.493Z,21.50
2022-08-27T00:09:44.423Z,21.50
2022-08-27T00:12:11.711Z,21.50
2022-08-27T00:14:39.068Z,21.40
2022-08-27T00:17:06.740Z,21.40
2022-08-27T00:19:33.693Z,21.30
2022-08-27T00:22:02.005Z,21.30
2022-08-27T00:24:28.972Z,21.30
2022-08-27T00:26:56.251Z,21.30
2022-08-27T00:29:23.500Z,21.20
2022-08-27T00:31:53.284Z,21.20
2022-08-27T00:34:21.601Z,21.30
2022-08-27T00:36:48.517Z,21.30
2022-08-27T00:39:16.843Z,21.10
2022-08-27T00:41:43.751Z,21.00
2022-08-27T00:44:10.756Z,20.80
2022-08-27T00:46:39.661Z,20.80
2022-08-27T00:49:09.498Z,20.80
2022-08-27T00:51:37.156Z,20.90
2022-08-27T00:54:04.635Z,20.80
2022-08-27T00:56:34.871Z,20.60
2022-08-27T00:59:02.336Z,20.60
2022-08-27T01:01:30.164Z,20.50
2022-08-27T01:03:59.263Z,20.50
2022-08-27T01:06:28.722Z,20.50
2022-08-27T01:08:57.856Z,20.40
2022-08-27T01:11:25.231Z,20.40
2022-08-27T01:13:59.947Z,20.40
2022-08-27T01:16:30.543Z,20.40
2022-08-27T01:18:58.685Z,20.30
2022-08-27T01:21:29.018Z,20.30
2022-08-27T01:24:01.911Z,20.30
2022-08-27T01:26:30.833Z,20.20
2022-08-27T01:28:58.311Z,20.20
2022-08-27T01:31:25.443Z,20.20
2022-08-27T01:33:57.143Z,20.20
2022-08-27T01:36:24.195Z,20.20
2022-08-27T01:38:51.161Z,20.10
2022-08-27T01:41:18.971Z,20.10
2022-08-27T01:43:48.518Z,20.10
2022-08-27T01:46:15.757Z,20.10
2022-08-27T01:48:42.779Z,20.00
2022-08-27T01:51:09.857Z,20.10
2022-08-27T01:53:36.811Z,20.10
2022-08-27T01:56:04.844Z,20.10
2022-08-27T01:58:32.909Z,20.00
2022-08-27T02:01:05.181Z,20.00
2022-08-27T02:03:32.650Z,20.00
2022-08-27T02:06:00.708Z,20.00
2022-08-27T02:08:27.640Z,20.00
2022-08-27T02:10:54.643Z,19.90
2022-08-27T02:13:21.698Z,20.00
2022-08-27T02:15:48.900Z,19.90
2022-08-27T02:18:17.453Z,20.00
2022-08-27T02:20:45.466Z,19.90
2022-08-27T02:23:12.970Z,19.90
2022-08-27T02:25:40.819Z,19.90
2022-08-27T02:28:08.205Z,19.70
2022-08-27T02:30:35.458Z,19.60
2022-08-27T02:33:03.209Z,19.60
2022-08-27T02:35:31.961Z,19.60
2022-08-27T02:37:59.270Z,19.60
2022-08-27T02:40:26.382Z,19.60
2022-08-27T02:42:53.498Z,19.50
2022-08-27T02:45:20.876Z,19.40
2022-08-27T02:47:48.512Z,19.40
2022-08-27T02:50:15.776Z,19.20
2022-08-27T02:52:45.375Z,19.10
2022-08-27T02:55:14.368Z,19.10
2022-08-27T02:57:44.389Z,19.00
2022-08-27T03:00:13.204Z,19.00
2022-08-27T03:02:40.163Z,19.00
2022-08-27T03:05:08.123Z,19.10
2022-08-27T03:07:35.111Z,19.10
2022-08-27T03:10:04.123Z,19.10
2022-08-27T03:12:32.014Z,19.20
2022-08-27T03:14:59.187Z,19.20
2022-08-27T03:17:44.757Z,19.20
2022-08-27T03:20:12.451Z,19.20
2022-08-27T03:22:40.250Z,19.30
2022-08-27T03:25:09.304Z,19.30
2022-08-27T03:27:36.345Z,19.30
2022-08-27T03:30:04.260Z,19.40
2022-08-27T03:32:31.241Z,19.40
2022-08-27T03:34:58.612Z,19.50
2022-08-27T03:37:26.044Z,19.50
2022-08-27T03:39:53.019Z,19.50
2022-08-27T03:42:21.323Z,19.50
2022-08-27T03:44:48.294Z,19.50
2022-08-27T03:47:15.589Z,19.50
2022-08-27T03:49:42.535Z,19.50
2022-08-27T03:52:10.032Z,19.50
2022-08-27T03:54:37.549Z,19.50
2022-08-27T03:57:05.156Z,19.40
2022-08-27T03:59:33.564Z,19.40
2022-08-27T04:02:00.603Z,19.40
2022-08-27T04:04:27.958Z,19.40
2022-08-27T04:06:58.285Z,19.40
2022-08-27T04:09:26.239Z,19.30
2022-08-27T04:11:53.388Z,19.40
2022-08-27T04:14:26.489Z,19.40
2022-08-27T04:16:56.693Z,19.40
2022-08-27T04:19:27.732Z,19.40
2022-08-27T04:22:00.143Z,19.30
2022-08-27T04:24:27.103Z,19.30
2022-08-27T04:26:54.061Z,19.30
2022-08-27T04:29:21.029Z,19.30
2022-08-27T04:31:48.107Z,19.40
2022-08-27T04:34:16.803Z,19.30
2022-08-27T04:36:43.728Z,19.30
2022-08-27T04:39:10.679Z,19.30
2022-08-27T04:41:37.654Z,19.30
2022-08-27T04:44:05.519Z,19.30
2022-08-27T04:46:34.122Z,19.30
2022-08-27T04:49:02.446Z,19.30
2022-08-27T04:51:33.746Z,19.30
2022-08-27T04:54:02.296Z,19.20
2022-08-27T04:56:29.661Z,19.10
2022-08-27T04:58:56.911Z,19.20
2022-08-27T05:01:25.159Z,19.20
2022-08-27T05:03:52.237Z,19.20
2022-08-27T05:06:19.472Z,19.30
2022-08-27T05:08:47.957Z,19.40
2022-08-27T05:11:15.574Z,19.40
2022-08-27T05:13:42.934Z,19.50
2022-08-27T05:16:11.734Z,19.60
2022-08-27T05:18:46.397Z,19.70
2022-08-27T05:21:16.943Z,19.90
2022-08-27T05:23:44.306Z,20.10
2022-08-27T05:26:13.015Z,20.30
2022-08-27T05:28:40.025Z,20.60
2022-08-27T05:31:08.505Z,20.80
2022-08-27T05:33:35.854Z,21.00
2022-08-27T05:36:03.081Z,21.30
2022-08-27T05:38:30.691Z,21.60
2022-08-27T05:41:06.327Z,22.10
2022-08-27T05:43:34.847Z,22.70
2022-08-27T05:46:04.365Z,23.40
2022-08-27T05:48:32.015Z,23.90
2022-08-27T05:50:59.252Z,25.00
2022-08-27T05:53:26.788Z,26.20
2022-08-27T05:55:53.707Z,26.90
2022-08-27T05:58:39.451Z,26.80
2022-08-27T06:01:10.272Z,26.50
2022-08-27T06:03:38.035Z,26.00
2022-08-27T06:06:06.210Z,26.20
2022-08-27T06:08:33.127Z,26.40
2022-08-27T06:11:01.687Z,26.40
2022-08-27T06:13:29.432Z,26.20
2022-08-27T06:16:00.819Z,26.20
2022-08-27T06:18:29.168Z,26.00
2022-08-27T06:20:56.694Z,26.00
2022-08-27T06:23:27.925Z,26.10
2022-08-27T06:25:55.576Z,26.30
2022-08-27T06:28:23.426Z,27.00
2022-08-27T06:30:50.739Z,27.50
2022-08-27T06:33:17.800Z,27.70
2022-08-27T06:35:46.193Z,28.20
2022-08-27T06:38:13.287Z,29.10
2022-08-27T06:40:40.617Z,29.60
2022-08-27T06:43:07.552Z,30.80
2022-08-27T06:45:37.306Z,31.60
2022-08-27T06:48:05.114Z,33.00
2022-08-27T06:50:36.867Z,34.30
2022-08-27T06:53:05.147Z,35.00
2022-08-27T06:55:35.417Z,34.40
2022-08-27T06:58:04.288Z,33.90
2022-08-27T07:00:31.276Z,35.80
2022-08-27T07:02:58.210Z,37.80
2022-08-27T07:05:26.200Z,38.80
2022-08-27T07:07:53.314Z,38.50
2022-08-27T07:10:21.836Z,38.20
2022-08-27T07:12:48.852Z,38.00
2022-08-27T07:15:15.997Z,37.40
2022-08-27T07:17:44.863Z,37.10
2022-08-27T07:20:12.585Z,37.50
2022-08-27T07:22:40.640Z,38.00
2022-08-27T07:25:09.812Z,37.80
2022-08-27T07:27:38.155Z,37.10
2022-08-27T07:30:09.550Z,36.20
2022-08-27T07:32:36.462Z,35.00
2022-08-27T07:35:04.563Z,34.40
2022-08-27T07:37:35.331Z,33.80
2022-08-27T07:40:03.593Z,34.30
2022-08-27T07:42:49.360Z,35.80
2022-08-27T07:45:17.857Z,36.90
2022-08-27T07:47:44.992Z,36.10
2022-08-27T07:50:12.003Z,36.30
2022-08-27T07:52:38.950Z,35.60
2022-08-27T07:55:06.500Z,35.70
2022-08-27T07:57:33.488Z,34.50
2022-08-27T08:00:00.408Z,32.60
2022-08-27T08:02:31.057Z,32.30
2022-08-27T08:05:00.748Z,31.60
2022-08-27T08:07:29.298Z,31.40
2022-08-27T08:09:56.442Z,30.90
2022-08-27T08:12:26.501Z,30.70
2022-08-27T08:14:57.821Z,30.00
2022-08-27T08:17:25.753Z,29.40
2022-08-27T08:20:15.755Z,28.80
2022-08-27T08:22:43.485Z,28.50
2022-08-27T08:25:12.998Z,28.20
2022-08-27T08:27:41.237Z,27.80
2022-08-27T08:30:09.262Z,27.70
2022-08-27T08:32:37.054Z,27.60
2022-08-27T08:35:09.143Z,27.20
2022-08-27T08:37:36.562Z,26.80
2022-08-27T08:40:04.577Z,26.30
2022-08-27T08:42:35.812Z,26.30
2022-08-27T08:45:04.625Z,26.50
2022-08-27T08:47:37.584Z,26.80
2022-08-27T08:50:08.415Z,27.20
2022-08-27T08:52:50.408Z,27.90
2022-08-27T08:55:29.231Z,29.10
2022-08-27T08:58:02.195Z,30.30
2022-08-27T09:00:29.763Z,30.40
2022-08-27T09:02:57.299Z,30.30
2022-08-27T09:05:27.819Z,30.60
2022-08-27T09:08:28.452Z,30.40
2022-08-27T09:10:54.966Z,30.20
2022-08-27T09:13:25.487Z,30.50
2022-08-27T09:15:55.554Z,31.10
2022-08-27T09:18:25.072Z,31.70
2022-08-27T09:21:00.977Z,31.20
2022-08-27T09:23:39.128Z,31.00
2022-08-27T09:26:17.440Z,31.40
2022-08-27T09:29:03.284Z,32.70
2022-08-27T09:31:30.328Z,32.90
2022-08-27T09:33:57.319Z,33.00
2022-08-27T09:36:24.719Z,32.00
2022-08-27T09:38:52.788Z,32.10
2022-08-27T09:41:28.406Z,31.80
2022-08-27T09:43:59.558Z,32.00
2022-08-27T09:46:27.594Z,32.40
2022-08-27T09:48:55.144Z,32.30
2022-08-27T09:51:24.114Z,32.10
2022-08-27T09:53:52.886Z,31.80
2022-08-27T09:56:26.456Z,30.60
2022-08-27T09:59:02.200Z,29.00
2022-08-27T10:01:30.779Z,28.50
2022-08-27T10:04:09.071Z,28.80
2022-08-27T10:06:37.908Z,28.60
2022-08-27T10:09:08.391Z,28.60
2022-08-27T10:11:38.074Z,28.50
2022-08-27T10:14:14.237Z,28.70
2022-08-27T10:16:47.532Z,28.00
2022-08-27T10:19:18.785Z,27.40
2022-08-27T10:21:49.942Z,27.90
2022-08-27T10:24:20.788Z,28.70
2022-08-27T10:26:51.565Z,29.10
2022-08-27T10:29:29.122Z,28.90
2022-08-27T10:32:04.125Z,28.60
2022-08-27T10:34:34.568Z,28.80
2022-08-27T10:37:10.568Z,29.00
2022-08-27T10:39:45.381Z,29.30
2022-08-27T10:42:15.047Z,29.60
2022-08-27T10:44:46.857Z,29.10
2022-08-27T10:47:19.287Z,29.50
2022-08-27T10:49:52.043Z,30.10
2022-08-27T10:52:22.317Z,30.40
2022-08-27T10:54:53.263Z,31.60
2022-08-27T10:57:39.937Z,33.00
2022-08-27T11:00:14.888Z,32.50
2022-08-27T11:02:45.787Z,31.00
2022-08-27T11:05:15.806Z,30.10
2022-08-27T11:07:46.407Z,29.80
2022-08-27T11:10:20.861Z,28.60
2022-08-27T11:12:50.584Z,29.40
2022-08-27T11:15:20.975Z,29.20
2022-08-27T11:17:52.189Z,29.00
2022-08-27T11:20:21.725Z,30.00
2022-08-27T11:22:51.187Z,30.10
2022-08-27T11:25:27.205Z,30.20
2022-08-27T11:27:56.474Z,29.40
2022-08-27T11:30:29.392Z,29.10
2022-08-27T11:33:02.013Z,29.80
2022-08-27T11:35:32.443Z,29.90
2022-08-27T11:38:18.138Z,30.00
2022-08-27T11:40:51.303Z,29.80
2022-08-27T11:43:21.967Z,30.10
2022-08-27T11:45:55.684Z,30.40
2022-08-27T11:48:24.068Z,31.20
2022-08-27T11:50:56.515Z,31.30
2022-08-27T11:53:28.307Z,31.50
2022-08-27T11:55:56.189Z,30.80
2022-08-27T11:58:25.686Z,30.60
2022-08-27T12:00:54.317Z,30.50
2022-08-27T12:03:27.152Z,30.00
2022-08-27T12:06:18.483Z,30.40
2022-08-27T12:08:45.778Z,30.60
2022-08-27T12:11:19.433Z,31.00
2022-08-27T12:13:53.443Z,30.00
2022-08-27T12:16:25.680Z,30.20
2022-08-27T12:19:06.277Z,31.10
2022-08-27T12:21:38.494Z,32.20
2022-08-27T12:24:13.892Z,32.80
2022-08-27T12:26:42.856Z,33.60
2022-08-27T12:30:31.927Z,33.50
2022-08-27T12:33:04.427Z,33.10
2022-08-27T12:35:32.719Z,31.60
2022-08-27T12:38:10.409Z,30.90
2022-08-27T12:40:40.717Z,29.80
2022-08-27T12:43:08.863Z,28.70
2022-08-27T12:45:43.323Z,28.60
2022-08-27T12:48:10.828Z,27.90
2022-08-27T12:50:38.433Z,27.20
2022-08-27T12:53:12.671Z,26.80
2022-08-27T12:55:49.572Z,26.80
2022-08-27T12:58:20.129Z,27.00
2022-08-27T13:00:58.820Z,27.00
2022-08-27T13:03:31.231Z,26.70
2022-08-27T13:06:00.204Z,26.80
2022-08-27T13:08:28.910Z,27.20
2022-08-27T13:10:56.227Z,27.70
2022-08-27T13:13:24.674Z,28.80
2022-08-27T13:15:55.789Z,29.10
2022-08-27T13:18:23.485Z,29.80
2022-08-27T13:20:53.251Z,29.70
2022-08-27T13:23:24.958Z,29.80
2022-08-27T13:25:56.871Z,30.50
2022-08-27T13:28:25.684Z,30.70
2022-08-27T13:30:54.938Z,30.20
2022-08-27T13:33:23.116Z,29.80
2022-08-27T13:35:50.950Z,28.80
2022-08-27T13:38:19.141Z,28.00
2022-08-27T13:40:51.879Z,27.60
2022-08-27T13:43:19.279Z,27.20
2022-08-27T13:45:48.733Z,26.90
2022-08-27T13:48:18.066Z,26.60
2022-08-27T13:50:49.155Z,26.40
2022-08-27T13:53:38.111Z,26.10
2022-08-27T13:56:05.172Z,26.00
2022-08-27T13:58:33.595Z,26.10
2022-08-27T14:01:08.477Z,26.30
2022-08-27T14:03:45.897Z,26.80
2022-08-27T14:06:21.988Z,27.20
2022-08-27T14:08:48.930Z,27.00
2022-08-27T14:11:22.379Z,26.90
2022-08-27T14:13:49.608Z,26.70
2022-08-27T14:16:25.064Z,27.80
2022-08-27T14:18:59.184Z,28.60
2022-08-27T14:21:26.641Z,28.90
2022-08-27T14:23:54.281Z,29.00
2022-08-27T14:26:21.476Z,29.00
2022-08-27T14:28:48.503Z,29.40
2022-08-27T14:31:15.789Z,29.50
2022-08-27T14:33:42.866Z,29.40
2022-08-27T14:36:11.191Z,29.10
2022-08-27T14:38:42.135Z,29.30
2022-08-27T14:41:09.322Z,29.30
2022-08-27T14:43:39.023Z,29.40
2022-08-27T14:46:11.775Z,29.70
2022-08-27T14:48:42.050Z,29.80
2022-08-27T14:51:17.156Z,29.10
2022-08-27T14:53:44.091Z,29.10
2022-08-27T14:56:11.293Z,29.30
2022-08-27T14:58:38.233Z,29.10
2022-08-27T15:01:05.794Z,29.10
2022-08-27T15:03:35.404Z,29.40
2022-08-27T15:06:02.342Z,29.70
2022-08-27T15:08:32.249Z,29.30
2022-08-27T15:10:59.916Z,29.10
2022-08-27T15:13:27.284Z,28.60
2022-08-27T15:15:54.394Z,28.70
2022-08-27T15:18:21.336Z,27.90
2022-08-27T15:20:48.469Z,28.00
2022-08-27T15:23:15.946Z,28.30
2022-08-27T15:25:45.291Z,28.90
2022-08-27T15:28:12.585Z,28.70
2022-08-27T15:30:39.876Z,29.00
2022-08-27T15:33:06.962Z,28.80
2022-08-27T15:35:34.572Z,28.80
2022-08-27T15:38:02.220Z,29.00
2022-08-27T15:40:32.066Z,29.30
2022-08-27T15:43:02.245Z,29.10
2022-08-27T15:45:29.859Z,29.20
2022-08-27T15:47:57.387Z,28.90
2022-08-27T15:50:24.831Z,29.00
2022-08-27T15:52:55.006Z,28.70
2022-08-27T15:55:23.359Z,28.70
2022-08-27T15:57:50.735Z,28.70
2022-08-27T16:00:20.293Z,28.90
2022-08-27T16:02:48.502Z,28.50
2022-08-27T16:05:16.006Z,28.50
2022-08-27T16:07:43.627Z,28.30
2022-08-27T16:10:11.310Z,28.10
2022-08-27T16:12:38.935Z,27.50
2022-08-27T16:15:06.880Z,27.30
2022-08-27T16:17:35.757Z,27.60
2022-08-27T16:20:03.754Z,27.50
2022-08-27T16:22:30.715Z,27.50
2022-08-27T16:24:57.749Z,26.90
2022-08-27T16:27:24.673Z,27.00
2022-08-27T16:29:51.628Z,27.20
2022-08-27T16:32:19.372Z,27.10
2022-08-27T16:34:55.388Z,27.10
2022-08-27T16:37:23.966Z,27.00
2022-08-27T16:39:52.019Z,27.00
2022-08-27T16:42:19.554Z,26.80
2022-08-27T16:44:46.854Z,26.70
2022-08-27T16:47:14.053Z,26.40
2022-08-27T16:50:00.323Z,26.70
2022-08-27T16:52:28.853Z,26.50
2022-08-27T16:54:56.959Z,26.90
2022-08-27T16:57:24.218Z,26.90
2022-08-27T16:59:51.293Z,26.20
2022-08-27T17:02:23.001Z,26.10
2022-08-27T17:04:58.463Z,26.10
2022-08-27T17:07:35.960Z,26.00
2022-08-27T17:10:06.939Z,26.00
2022-08-27T17:12:34.188Z,25.70
2022-08-27T17:15:01.425Z,25.70
2022-08-27T17:17:29.685Z,25.70
2022-08-27T17:19:56.771Z,25.30
2022-08-27T17:22:24.529Z,25.20
2022-08-27T17:24:52.801Z,24.90
2022-08-27T17:27:20.417Z,24.60
2022-08-27T17:29:47.570Z,24.40
2022-08-27T17:32:14.889Z,24.40
2022-08-27T17:34:42.125Z,24.40
2022-08-27T17:37:09.283Z,24.50
2022-08-27T17:39:36.219Z,24.50
2022-08-27T17:42:06.037Z,24.20
2022-08-27T17:44:34.933Z,23.70
2022-08-27T17:47:03.442Z,23.90
2022-08-27T17:49:31.189Z,24.10
2022-08-27T17:51:59.548Z,24.10
2022-08-27T17:54:29.931Z,24.30
2022-08-27T17:56:57.283Z,24.50
2022-08-27T17:59:26.892Z,24.60
2022-08-27T18:01:54.025Z,24.40
2022-08-27T18:04:21.474Z,24.20
2022-08-27T18:06:48.730Z,24.10
2022-08-27T18:09:16.012Z,24.20
2022-08-27T18:11:43.195Z,24.30
2022-08-27T18:14:11.603Z,24.30
2022-08-27T18:16:40.668Z,24.50
2022-08-27T18:19:08.670Z,23.90
2022-08-27T18:21:35.763Z,23.70
2022-08-27T18:24:13.537Z,23.30
2022-08-27T18:26:40.701Z,23.40
2022-08-27T18:29:07.864Z,23.40
2022-08-27T18:31:35.286Z,23.10
2022-08-27T18:34:03.667Z,23.00
2022-08-27T18:36:31.129Z,22.50
2022-08-27T18:38:58.410Z,22.10
2022-08-27T18:41:26.453Z,22.00
2022-08-27T18:43:54.598Z,22.20
2022-08-27T18:46:21.660Z,22.60
2022-08-27T18:48:48.672Z,22.70
2022-08-27T18:51:19.625Z,22.30
2022-08-27T18:53:47.496Z,22.00
2022-08-27T18:56:16.580Z,22.30
2022-08-27T18:58:44.177Z,22.40
2022-08-27T19:01:12.781Z,22.40
2022-08-27T19:03:42.055Z,22.40
2022-08-27T19:06:12.583Z,21.90
2022-08-27T19:08:43.421Z,21.80
2022-08-27T19:11:10.822Z,22.00
2022-08-27T19:13:37.844Z,22.10
2022-08-27T19:16:06.084Z,22.10
2022-08-27T19:18:34.600Z,22.30
2022-08-27T19:21:01.757Z,22.20
2022-08-27T19:23:28.868Z,22.00
2022-08-27T19:25:57.962Z,21.80
2022-08-27T19:28:28.039Z,21.70
2022-08-27T19:30:55.046Z,21.70
2022-08-27T19:33:22.560Z,21.20
2022-08-27T19:35:49.767Z,21.20
2022-08-27T19:38:16.743Z,20.90
2022-08-27T19:40:43.841Z,20.50
2022-08-27T19:43:12.162Z,20.40
2022-08-27T19:45:40.278Z,20.20
2022-08-27T19:48:08.127Z,20.10
2022-08-27T19:50:35.254Z,20.20
2022-08-27T19:53:02.232Z,20.30
2022-08-27T19:55:29.448Z,20.10
2022-08-27T19:57:56.442Z,20.10
2022-08-27T20:00:27.689Z,20.30
2022-08-27T20:02:55.313Z,20.10
2022-08-27T20:05:23.038Z,19.70
2022-08-27T20:07:52.142Z,19.50
2022-08-27T20:10:20.000Z,19.60
2022-08-27T20:12:48.807Z,19.70
2022-08-27T20:15:16.083Z,19.40
2022-08-27T20:17:45.293Z,19.70
2022-08-27T20:20:12.396Z,19.60
2022-08-27T20:22:39.772Z,19.70
2022-08-27T20:25:07.273Z,19.40
2022-08-27T20:27:34.880Z,19.20
2022-08-27T20:30:04.667Z,19.20
2022-08-27T20:32:31.912Z,19.40
2022-08-27T20:35:00.189Z,19.10
2022-08-27T20:37:27.156Z,19.20
2022-08-27T20:39:54.360Z,19.40
2022-08-27T20:42:21.508Z,19.30
2022-08-27T20:44:49.185Z,19.00
2022-08-27T20:47:16.977Z,19.10
2022-08-27T20:49:44.563Z,18.90
2022-08-27T20:52:13.206Z,18.80
2022-08-27T20:54:40.604Z,18.80
2022-08-27T20:57:08.853Z,19.10
2022-08-27T20:59:54.572Z,18.90
2022-08-27T21:02:22.861Z,18.70
2022-08-27T21:04:49.984Z,18.70
2022-08-27T21:07:19.260Z,18.70
2022-08-27T21:09:56.369Z,18.60
2022-08-27T21:12:25.003Z,19.10
2022-08-27T21:14:55.774Z,19.00
2022-08-27T21:17:24.696Z,19.30
2022-08-27T21:19:54.492Z,19.50
2022-08-27T21:22:23.833Z,19.40
2022-08-27T21:24:51.481Z,19.30
2022-08-27T21:27:19.474Z,19.30
2022-08-27T21:29:46.641Z,19.60
2022-08-27T21:32:14.263Z,19.50
2022-08-27T21:34:44.278Z,19.50
2022-08-27T21:37:17.435Z,19.40
2022-08-27T21:39:46.862Z,19.50
2022-08-27T21:42:15.998Z,19.60
2022-08-27T21:44:44.006Z,19.60
2022-08-27T21:47:11.190Z,19.80
2022-08-27T21:49:38.972Z,20.00
2022-08-27T21:52:07.164Z,19.90
2022-08-27T21:54:35.056Z,19.90
2022-08-27T21:57:04.624Z,19.90
2022-08-27T21:59:31.981Z,20.00
2022-08-27T22:02:01.197Z,19.80
2022-08-27T22:04:30.920Z,19.80
2022-08-27T22:06:58.886Z,19.80
2022-08-27T22:09:26.230Z,19.60
2022-08-27T22:11:53.404Z,19.60
2022-08-27T22:14:22.266Z,19.30
2022-08-27T22:16:50.154Z,19.10
2022-08-27T22:19:17.783Z,19.10
2022-08-27T22:21:47.674Z,19.20
2022-08-27T22:24:15.127Z,19.20
2022-08-27T22:26:42.470Z,19.30
2022-08-27T22:29:09.650Z,19.20
2022-08-27T22:31:38.755Z,19.20
2022-08-27T22:34:06.256Z,19.20
2022-08-27T22:36:33.483Z,19.20
2022-08-27T22:39:03.502Z,18.80
2022-08-27T22:41:32.486Z,18.70
2022-08-27T22:43:59.809Z,19.00
2022-08-27T22:46:26.941Z,19.10
2022-08-27T22:48:55.695Z,19.20
2022-08-27T22:51:22.816Z,19.30
2022-08-27T22:53:49.920Z,19.20
2022-08-27T22:56:17.051Z,19.20
2022-08-27T22:58:46.150Z,19.20
2022-08-27T23:01:13.573Z,19.20
2022-08-27T23:03:40.654Z,19.20
2022-08-27T23:06:09.035Z,19.10
2022-08-27T23:08:37.205Z,19.10
2022-08-27T23:11:04.607Z,19.00
2022-08-27T23:13:32.828Z,19.10
2022-08-27T23:16:01.572Z,19.00
2022-08-27T23:18:32.204Z,19.00
2022-08-27T23:20:59.351Z,18.90
2022-08-27T23:23:30.692Z,18.90
2022-08-27T23:26:16.373Z,18.80
2022-08-27T23:28:44.193Z,18.70
2022-08-27T23:31:11.255Z,18.40
2022-08-27T23:33:38.540Z,18.40
2022-08-27T23:36:05.983Z,18.50
2022-08-27T23:38:34.545Z,18.60
2022-08-27T23:41:01.492Z,18.50
2022-08-27T23:43:28.449Z,18.40
2022-08-27T23:45:55.597Z,18.40
2022-08-27T23:48:22.567Z,18.40
2022-08-27T23:50:49.479Z,18.30
2022-08-27T23:53:16.385Z,18.10
2022-08-27T23:55:44.669Z,18.20
2022-08-27T23:58:11.791Z,18.30
